createdAt,value
2023-01-26T00:01:27.703Z,56.87
2023-01-26T00:03:57.156Z,67.27
2023-01-26T00:06:28.761Z,55.97
2023-01-26T00:08:58.191Z,58.30
2023-01-26T00:11:29.555Z,55.80
2023-01-26T00:14:00.947Z,56.83
2023-01-26T00:16:31.201Z,56.40
2023-01-26T00:19:00.008Z,66.00
2023-01-26T00:21:28.809Z,61.33
2023-01-26T00:23:58.926Z,62.90
2023-01-26T00:26:28.513Z,47.03
2023-01-26T00:29:00.060Z,52.47
2023-01-26T00:31:30.880Z,54.63
2023-01-26T00:33:59.679Z,37.07
2023-01-26T00:36:28.663Z,58.67
2023-01-26T00:38:58.258Z,60.33
2023-01-26T00:41:44.344Z,52.87
2023-01-26T00:44:13.275Z,53.77
2023-01-26T00:46:47.838Z,60.17
2023-01-26T00:49:16.593Z,58.63
2023-01-26T00:51:45.270Z,58.90
2023-01-26T00:54:14.441Z,53.00
2023-01-26T00:56:43.249Z,54.37
2023-01-26T00:59:12.377Z,46.63
2023-01-26T01:01:42.580Z,55.60
2023-01-26T01:04:18.549Z,59.30
2023-01-26T01:06:49.230Z,69.27
2023-01-26T01:09:17.988Z,56.23
2023-01-26T01:11:46.971Z,56.60
2023-01-26T01:14:16.261Z,53.40
2023-01-26T01:16:46.631Z,63.70
2023-01-26T01:19:16.539Z,62.13
2023-01-26T01:21:47.558Z,46.10
2023-01-26T01:24:16.226Z,52.57
2023-01-26T01:26:45.092Z,57.63
2023-01-26T01:29:15.204Z,64.57
2023-01-26T01:31:45.480Z,69.43
2023-01-26T01:34:14.180Z,46.80
2023-01-26T01:36:42.929Z,64.33
2023-01-26T01:39:11.750Z,54.60
2023-01-26T01:41:41.871Z,53.30
2023-01-26T01:44:19.607Z,63.97
2023-01-26T01:46:59.356Z,51.17
2023-01-26T01:49:31.117Z,51.23
2023-01-26T01:52:04.714Z,48.03
2023-01-26T01:54:39.058Z,47.23
2023-01-26T01:57:15.807Z,45.87
2023-01-26T01:59:48.759Z,58.00
2023-01-26T02:02:19.932Z,57.60
2023-01-26T02:04:49.328Z,49.60
2023-01-26T02:07:18.390Z,49.03
2023-01-26T02:10:07.417Z,56.33
2023-01-26T02:12:37.687Z,50.30
2023-01-26T02:15:07.634Z,43.53
2023-01-26T02:17:38.159Z,39.70
2023-01-26T02:20:16.403Z,52.97
2023-01-26T02:22:55.630Z,43.67
2023-01-26T02:25:41.465Z,50.77
2023-01-26T02:28:16.961Z,44.03
2023-01-26T02:30:48.884Z,61.57
2023-01-26T02:33:19.921Z,38.30
2023-01-26T02:35:52.453Z,43.20
2023-01-26T02:38:23.811Z,41.77
2023-01-26T02:41:00.571Z,46.03
2023-01-26T02:43:29.868Z,36.27
2023-01-26T02:45:58.602Z,43.77
2023-01-26T02:48:44.544Z,40.90
2023-01-26T02:51:13.610Z,35.93
2023-01-26T02:53:42.242Z,39.47
2023-01-26T02:56:17.903Z,35.70
2023-01-26T02:58:47.947Z,39.20
2023-01-26T03:01:16.722Z,37.10
2023-01-26T03:03:45.776Z,36.17
2023-01-26T03:06:15.324Z,31.70
2023-01-26T03:08:44.174Z,32.27
2023-01-26T03:11:12.863Z,36.27
2023-01-26T03:13:41.576Z,34.57
2023-01-26T03:16:12.116Z,40.53
2023-01-26T03:19:00.813Z,39.33
2023-01-26T03:21:46.990Z,34.13
2023-01-26T03:24:35.807Z,33.67
2023-01-26T03:27:22.232Z,40.53
2023-01-26T03:29:50.977Z,45.07
2023-01-26T03:32:21.385Z,35.17
2023-01-26T03:34:50.176Z,39.93
2023-01-26T03:37:22.823Z,37.10
2023-01-26T03:40:10.154Z,45.63
2023-01-26T03:42:57.161Z,37.13
2023-01-26T03:45:43.216Z,38.27
2023-01-26T03:48:31.571Z,31.13
2023-01-26T03:51:17.870Z,37.00
2023-01-26T03:54:03.911Z,34.10
2023-01-26T03:56:33.577Z,29.37
2023-01-26T03:59:08.421Z,30.60
2023-01-26T04:01:38.659Z,34.03
2023-01-26T04:04:27.294Z,30.77
2023-01-26T04:07:13.372Z,38.27
2023-01-26T04:09:42.102Z,33.73
2023-01-26T04:12:12.220Z,30.33
2023-01-26T04:14:58.357Z,23.93
2023-01-26T04:17:44.299Z,30.27
2023-01-26T04:20:32.121Z,41.47
2023-01-26T04:23:00.984Z,28.43
2023-01-26T04:25:29.847Z,27.83
2023-01-26T04:27:58.629Z,29.27
2023-01-26T04:30:27.432Z,29.53
2023-01-26T04:32:56.199Z,29.97
2023-01-26T04:35:26.504Z,21.73
2023-01-26T04:37:55.126Z,27.60
2023-01-26T04:40:23.929Z,25.93
2023-01-26T04:42:52.641Z,35.23
2023-01-26T04:45:21.587Z,23.93
2023-01-26T04:47:51.041Z,31.13
2023-01-26T04:50:19.949Z,26.20
2023-01-26T04:52:50.273Z,37.03
2023-01-26T04:55:21.867Z,23.70
2023-01-26T04:57:50.692Z,27.53
2023-01-26T05:00:22.410Z,25.57
2023-01-26T05:02:53.253Z,29.27
2023-01-26T05:05:22.132Z,29.03
2023-01-26T05:07:53.359Z,28.23
2023-01-26T05:10:22.146Z,22.90
2023-01-26T05:12:51.999Z,35.43
2023-01-26T05:15:20.867Z,28.73
2023-01-26T05:17:49.589Z,33.07
2023-01-26T05:20:18.966Z,30.47
2023-01-26T05:22:48.349Z,28.50
2023-01-26T05:25:18.813Z,28.53
2023-01-26T05:27:47.664Z,27.43
2023-01-26T05:30:17.174Z,24.03
2023-01-26T05:32:46.141Z,33.93
2023-01-26T05:35:14.855Z,29.10
2023-01-26T05:37:43.658Z,22.00
2023-01-26T05:40:14.246Z,23.77
2023-01-26T05:42:47.429Z,29.37
2023-01-26T05:45:16.614Z,22.20
2023-01-26T05:47:45.590Z,27.20
2023-01-26T05:50:14.811Z,23.67
2023-01-26T05:52:44.229Z,18.43
2023-01-26T05:55:13.427Z,20.33
2023-01-26T05:57:43.730Z,27.00
2023-01-26T06:00:15.394Z,20.97
2023-01-26T06:02:45.891Z,25.23
2023-01-26T06:05:15.846Z,21.07
2023-01-26T06:07:44.539Z,23.57
2023-01-26T06:10:13.721Z,21.30
2023-01-26T06:12:43.217Z,24.33
2023-01-26T06:15:13.840Z,17.87
2023-01-26T06:17:42.923Z,26.47
2023-01-26T06:20:14.669Z,19.97
2023-01-26T06:22:44.995Z,22.10
2023-01-26T06:25:13.813Z,28.10
2023-01-26T06:27:42.791Z,24.00
2023-01-26T06:30:14.217Z,22.87
2023-01-26T06:32:42.973Z,29.27
2023-01-26T06:35:11.634Z,23.47
2023-01-26T06:37:40.437Z,19.80
2023-01-26T06:40:11.302Z,18.83
2023-01-26T06:42:40.198Z,20.20
2023-01-26T06:45:10.427Z,28.23
2023-01-26T06:47:46.214Z,21.93
2023-01-26T06:50:16.618Z,32.10
2023-01-26T06:52:48.583Z,25.30
2023-01-26T06:55:21.716Z,21.53
2023-01-26T06:57:50.583Z,19.80
2023-01-26T07:00:20.443Z,27.77
2023-01-26T07:02:50.597Z,23.10
2023-01-26T07:05:19.428Z,28.30
2023-01-26T07:07:48.351Z,28.80
2023-01-26T07:10:17.427Z,23.47
2023-01-26T07:12:47.010Z,27.00
2023-01-26T07:15:17.531Z,26.77
2023-01-26T07:17:46.229Z,24.07
2023-01-26T07:20:16.822Z,27.80
2023-01-26T07:22:45.554Z,24.53
2023-01-26T07:25:14.532Z,47.13
2023-01-26T07:27:43.421Z,29.97
2023-01-26T07:30:14.776Z,29.87
2023-01-26T07:32:43.590Z,27.80
2023-01-26T07:35:12.548Z,28.37
2023-01-26T07:37:42.602Z,25.83
2023-01-26T07:40:13.006Z,21.20
2023-01-26T07:42:43.900Z,26.10
2023-01-26T07:45:13.038Z,19.37
2023-01-26T07:47:41.718Z,19.47
2023-01-26T07:50:13.276Z,17.77
2023-01-26T07:52:43.696Z,25.50
2023-01-26T07:55:12.387Z,20.60
2023-01-26T07:57:41.174Z,20.83
2023-01-26T08:00:15.592Z,29.63
2023-01-26T08:02:44.418Z,20.60
2023-01-26T08:05:13.169Z,20.10
2023-01-26T08:07:43.390Z,25.50
2023-01-26T08:10:14.696Z,40.00
2023-01-26T08:12:43.305Z,27.03
2023-01-26T08:15:12.945Z,33.40
2023-01-26T08:17:41.648Z,30.77
2023-01-26T08:20:12.504Z,33.07
2023-01-26T08:22:42.893Z,27.13
2023-01-26T08:25:12.265Z,24.40
2023-01-26T08:27:40.972Z,30.07
2023-01-26T08:30:11.322Z,21.90
2023-01-26T08:32:40.233Z,38.50
2023-01-26T08:35:09.630Z,31.90
2023-01-26T08:37:38.249Z,35.63
2023-01-26T08:40:10.727Z,37.27
2023-01-26T08:42:39.755Z,39.10
2023-01-26T08:45:09.850Z,31.03
2023-01-26T08:47:38.539Z,33.40
2023-01-26T08:50:07.943Z,38.90
2023-01-26T08:52:36.886Z,36.83
2023-01-26T08:55:07.805Z,48.10
2023-01-26T08:57:36.614Z,48.43
2023-01-26T09:00:05.971Z,49.93
2023-01-26T09:02:34.990Z,50.60
2023-01-26T09:05:03.751Z,69.83
2023-01-26T09:07:32.532Z,59.13
2023-01-26T09:10:01.283Z,43.80
2023-01-26T09:12:31.638Z,39.93
2023-01-26T09:15:00.453Z,56.03
2023-01-26T09:17:29.143Z,48.83
2023-01-26T09:19:57.810Z,53.10
2023-01-26T09:22:26.563Z,56.17
2023-01-26T09:24:55.228Z,57.03
2023-01-26T09:27:24.027Z,70.70
2023-01-26T09:29:55.355Z,58.63
2023-01-26T09:32:24.249Z,60.50
2023-01-26T09:34:53.013Z,56.67
2023-01-26T09:37:21.657Z,53.13
2023-01-26T09:39:50.272Z,64.33
2023-01-26T09:42:36.398Z,49.77
2023-01-26T09:45:25.605Z,45.33
2023-01-26T09:48:12.979Z,47.67
2023-01-26T09:50:45.320Z,56.80
2023-01-26T09:53:18.339Z,40.73
2023-01-26T09:55:49.732Z,45.40
2023-01-26T09:58:25.639Z,38.97
2023-01-26T10:01:00.931Z,49.53
2023-01-26T10:03:36.799Z,55.93
2023-01-26T10:06:14.674Z,41.40
2023-01-26T10:08:45.096Z,40.67
2023-01-26T10:11:19.722Z,40.17
2023-01-26T10:13:56.016Z,46.33
2023-01-26T10:16:26.222Z,33.17
2023-01-26T10:18:59.476Z,44.83
2023-01-26T10:21:34.870Z,52.23
2023-01-26T10:24:05.796Z,45.90
2023-01-26T10:26:35.274Z,32.13
2023-01-26T10:29:05.256Z,43.60
2023-01-26T10:31:35.768Z,37.03
2023-01-26T10:34:14.307Z,35.90
2023-01-26T10:36:45.343Z,33.63
2023-01-26T10:39:15.961Z,37.60
2023-01-26T10:41:58.869Z,34.33
2023-01-26T10:44:34.155Z,41.43
2023-01-26T10:47:17.471Z,33.40
2023-01-26T10:49:46.591Z,47.43
2023-01-26T10:52:21.754Z,43.00
2023-01-26T10:54:53.977Z,41.03
2023-01-26T10:57:28.113Z,44.57
2023-01-26T10:59:58.805Z,51.77
2023-01-26T11:02:30.498Z,28.03
2023-01-26T11:05:22.191Z,38.33
2023-01-26T11:07:55.372Z,49.87
2023-01-26T11:10:28.004Z,34.23
2023-01-26T11:13:23.932Z,46.33
2023-01-26T11:16:04.357Z,35.87
2023-01-26T11:18:43.864Z,36.77
2023-01-26T11:21:17.437Z,48.07
2023-01-26T11:23:57.903Z,33.40
2023-01-26T11:26:47.202Z,25.53
2023-01-26T11:29:47.768Z,33.47
2023-01-26T11:32:26.075Z,33.93
2023-01-26T11:35:10.451Z,25.73
2023-01-26T11:37:45.998Z,31.13
2023-01-26T11:40:27.502Z,29.67
2023-01-26T11:43:08.619Z,23.37
2023-01-26T11:45:46.239Z,19.10
2023-01-26T11:48:24.099Z,38.43
2023-01-26T11:50:58.510Z,18.80
2023-01-26T11:53:54.016Z,20.77
2023-01-26T11:56:35.416Z,23.03
2023-01-26T11:59:09.097Z,27.80
2023-01-26T12:01:42.702Z,26.93
2023-01-26T12:04:18.958Z,33.30
2023-01-26T12:06:54.177Z,26.13
2023-01-26T12:09:33.301Z,23.40
2023-01-26T12:12:06.505Z,22.33
2023-01-26T12:14:42.445Z,18.07
2023-01-26T12:17:25.938Z,17.83
2023-01-26T12:20:04.596Z,27.33
2023-01-26T12:22:37.754Z,25.27
2023-01-26T12:25:20.929Z,19.80
2023-01-26T12:27:54.197Z,26.27
2023-01-26T12:30:36.560Z,19.00
2023-01-26T12:33:05.819Z,27.13
2023-01-26T12:36:00.992Z,25.90
2023-01-26T12:38:43.979Z,32.40
2023-01-26T12:41:18.770Z,17.27
2023-01-26T12:44:03.768Z,20.13
2023-01-26T12:46:39.682Z,20.53
2023-01-26T12:49:20.094Z,27.43
2023-01-26T12:51:55.386Z,19.00
2023-01-26T12:54:32.818Z,38.30
2023-01-26T12:57:03.582Z,22.10
2023-01-26T12:59:46.418Z,17.33
2023-01-26T13:02:34.145Z,16.93
2023-01-26T13:05:04.387Z,23.13
2023-01-26T13:07:36.090Z,17.07
2023-01-26T13:10:30.994Z,25.93
2023-01-26T13:13:28.235Z,15.90
2023-01-26T13:16:26.575Z,19.07
2023-01-26T13:18:56.557Z,17.07
2023-01-26T13:21:29.276Z,18.17
2023-01-26T13:23:57.985Z,15.73
2023-01-26T13:26:52.761Z,19.13
2023-01-26T13:29:35.670Z,18.80
2023-01-26T13:32:37.709Z,24.73
2023-01-26T13:35:14.042Z,21.03
2023-01-26T13:37:51.119Z,17.30
2023-01-26T13:40:23.987Z,17.70
2023-01-26T13:43:01.772Z,15.13
2023-01-26T13:45:34.682Z,20.27
2023-01-26T13:48:06.315Z,17.20
2023-01-26T13:50:38.102Z,15.27
2023-01-26T13:53:31.067Z,20.23
2023-01-26T13:56:01.679Z,15.80
2023-01-26T13:58:32.479Z,15.17
2023-01-26T14:01:02.760Z,11.60
2023-01-26T14:03:32.117Z,20.37
2023-01-26T14:06:04.490Z,19.40
2023-01-26T14:08:34.289Z,16.13
2023-01-26T14:11:05.864Z,17.13
2023-01-26T14:13:38.218Z,15.07
2023-01-26T14:16:08.823Z,23.57
2023-01-26T14:18:37.684Z,15.83
2023-01-26T14:21:17.495Z,16.63
2023-01-26T14:23:46.164Z,20.27
2023-01-26T14:26:20.066Z,16.07
2023-01-26T14:28:50.233Z,23.53
2023-01-26T14:31:21.790Z,10.33
2023-01-26T14:33:53.445Z,11.43
2023-01-26T14:36:22.714Z,12.57
2023-01-26T14:38:53.194Z,14.27
2023-01-26T14:41:25.149Z,15.03
2023-01-26T14:43:59.703Z,10.73
2023-01-26T14:46:32.863Z,14.63
2023-01-26T14:49:07.384Z,22.53
2023-01-26T14:51:36.848Z,12.07
2023-01-26T14:54:12.146Z,15.70
2023-01-26T14:56:42.049Z,12.27
2023-01-26T14:59:23.049Z,21.07
2023-01-26T15:01:52.048Z,17.90
2023-01-26T15:04:26.110Z,15.33
2023-01-26T15:06:55.096Z,21.73
2023-01-26T15:09:27.093Z,17.70
2023-01-26T15:12:15.637Z,16.37
2023-01-26T15:14:51.769Z,19.07
2023-01-26T15:17:31.744Z,18.00
2023-01-26T15:20:00.548Z,15.50
2023-01-26T15:22:29.273Z,15.37
2023-01-26T15:25:03.637Z,21.23
2023-01-26T15:27:36.585Z,13.77
2023-01-26T15:30:08.156Z,16.30
2023-01-26T15:32:41.156Z,23.13
2023-01-26T15:35:21.633Z,19.63
2023-01-26T15:37:51.123Z,16.27
2023-01-26T15:40:19.831Z,18.60
2023-01-26T15:42:48.489Z,17.27
2023-01-26T15:45:26.886Z,20.37
2023-01-26T15:47:55.614Z,24.33
2023-01-26T15:50:28.113Z,14.53
2023-01-26T15:52:57.202Z,14.63
2023-01-26T15:55:29.232Z,11.93
2023-01-26T15:57:58.052Z,11.93
2023-01-26T16:00:28.393Z,18.37
2023-01-26T16:02:57.050Z,14.67
2023-01-26T16:05:28.007Z,20.87
2023-01-26T16:07:56.679Z,14.23
2023-01-26T16:10:25.682Z,21.70
2023-01-26T16:12:54.587Z,24.17
2023-01-26T16:15:41.465Z,16.20
2023-01-26T16:18:10.216Z,11.73
2023-01-26T16:20:41.388Z,8.30
2023-01-26T16:23:18.711Z,22.90
2023-01-26T16:25:48.160Z,25.33
2023-01-26T16:28:17.050Z,18.73
2023-01-26T16:30:49.557Z,25.30
2023-01-26T16:33:21.222Z,19.30
2023-01-26T16:35:50.039Z,20.13
2023-01-26T16:38:18.650Z,19.07
2023-01-26T16:40:49.481Z,16.03
2023-01-26T16:43:23.657Z,27.63
2023-01-26T16:45:54.583Z,17.75
2023-01-26T16:48:23.929Z,16.53
2023-01-26T16:50:54.814Z,20.87
2023-01-26T16:53:28.084Z,22.53
2023-01-26T16:55:57.190Z,18.23
2023-01-26T16:58:26.746Z,14.57
2023-01-26T17:00:57.586Z,24.00
2023-01-26T17:03:26.332Z,15.43
2023-01-26T17:05:55.914Z,15.90
2023-01-26T17:08:25.057Z,26.10
2023-01-26T17:11:02.881Z,17.03
2023-01-26T17:13:32.415Z,16.90
2023-01-26T17:16:02.600Z,25.07
2023-01-26T17:18:33.537Z,16.13
2023-01-26T17:21:06.220Z,18.60
2023-01-26T17:23:37.754Z,16.73
2023-01-26T17:26:08.237Z,14.37
2023-01-26T17:28:37.002Z,16.87
2023-01-26T17:31:10.962Z,18.47
2023-01-26T17:33:39.967Z,16.97
2023-01-26T17:36:17.067Z,17.37
2023-01-26T17:38:45.965Z,18.10
2023-01-26T17:41:14.652Z,19.77
2023-01-26T17:43:43.415Z,15.57
2023-01-26T17:46:15.276Z,23.80
2023-01-26T17:48:45.586Z,14.93
2023-01-26T17:51:16.952Z,29.33
2023-01-26T17:53:47.546Z,20.83
2023-01-26T17:56:18.280Z,34.77
2023-01-26T17:58:50.005Z,22.07
2023-01-26T18:01:20.898Z,21.73
2023-01-26T18:03:50.592Z,25.50
2023-01-26T18:06:19.468Z,21.10
2023-01-26T18:08:48.688Z,34.07
2023-01-26T18:11:18.427Z,16.30
2023-01-26T18:13:47.744Z,17.03
2023-01-26T18:16:18.096Z,25.37
2023-01-26T18:18:49.172Z,17.37
2023-01-26T18:21:20.371Z,19.87
2023-01-26T18:23:50.499Z,12.43
2023-01-26T18:26:20.991Z,13.47
2023-01-26T18:28:52.460Z,16.27
2023-01-26T18:31:26.478Z,26.37
2023-01-26T18:33:57.716Z,20.50
2023-01-26T18:36:29.779Z,12.20
2023-01-26T18:39:00.545Z,21.33
2023-01-26T18:41:32.502Z,11.87
2023-01-26T18:44:03.354Z,24.03
2023-01-26T18:46:32.823Z,14.17
2023-01-26T18:49:03.761Z,12.30
2023-01-26T18:51:34.452Z,23.00
2023-01-26T18:54:04.168Z,18.50
2023-01-26T18:56:33.882Z,19.83
2023-01-26T18:59:02.845Z,16.97
2023-01-26T19:01:31.614Z,14.23
2023-01-26T19:04:02.937Z,12.53
2023-01-26T19:06:33.809Z,16.83
2023-01-26T19:09:04.540Z,19.53
2023-01-26T19:11:35.509Z,24.43
2023-01-26T19:14:06.117Z,18.97
2023-01-26T19:16:35.066Z,15.70
2023-01-26T19:19:05.038Z,19.03
2023-01-26T19:21:35.604Z,17.43
2023-01-26T19:24:06.143Z,16.60
2023-01-26T19:26:37.715Z,19.63
2023-01-26T19:29:07.218Z,14.63
2023-01-26T19:31:38.151Z,20.00
2023-01-26T19:34:16.958Z,13.93
2023-01-26T19:36:56.606Z,22.13
2023-01-26T19:39:25.542Z,22.20
2023-01-26T19:41:54.452Z,20.20
2023-01-26T19:44:23.255Z,27.47
2023-01-26T19:46:55.898Z,24.97
2023-01-26T19:49:24.749Z,18.40
2023-01-26T19:51:55.633Z,17.17
2023-01-26T19:54:26.499Z,16.07
2023-01-26T19:56:55.257Z,16.47
2023-01-26T19:59:24.126Z,21.87
2023-01-26T20:01:53.159Z,21.50
2023-01-26T20:04:22.040Z,22.40
2023-01-26T20:06:51.115Z,18.77
2023-01-26T20:09:22.168Z,20.53
2023-01-26T20:11:51.390Z,16.97
2023-01-26T20:14:20.993Z,31.80
2023-01-26T20:16:49.798Z,19.07
2023-01-26T20:19:18.733Z,24.97
2023-01-26T20:21:48.031Z,22.47
2023-01-26T20:24:17.616Z,30.97
2023-01-26T20:26:48.223Z,16.20
2023-01-26T20:29:20.190Z,27.67
2023-01-26T20:31:50.770Z,19.87
2023-01-26T20:34:22.627Z,34.83
2023-01-26T20:36:51.812Z,36.27
2023-01-26T20:39:25.159Z,29.13
2023-01-26T20:41:55.708Z,31.43
2023-01-26T20:44:24.415Z,21.13
2023-01-26T20:46:53.439Z,25.30
2023-01-26T20:49:22.631Z,42.00
2023-01-26T20:51:54.030Z,20.73
2023-01-26T20:54:23.035Z,27.13
2023-01-26T20:56:51.849Z,19.27
2023-01-26T20:59:24.550Z,22.23
2023-01-26T21:01:54.978Z,35.93
2023-01-26T21:04:24.091Z,32.90
2023-01-26T21:06:54.468Z,27.13
2023-01-26T21:09:23.385Z,28.27
2023-01-26T21:11:55.456Z,27.50
2023-01-26T21:14:25.758Z,26.03
2023-01-26T21:16:54.638Z,21.73
2023-01-26T21:19:23.768Z,24.67
2023-01-26T21:21:52.664Z,17.80
2023-01-26T21:24:21.663Z,34.50
2023-01-26T21:26:50.522Z,22.07
2023-01-26T21:29:19.381Z,27.43
2023-01-26T21:31:52.258Z,23.10
2023-01-26T21:34:21.224Z,32.10
2023-01-26T21:36:50.330Z,24.83
2023-01-26T21:39:21.995Z,27.80
2023-01-26T21:42:00.804Z,33.20
2023-01-26T21:44:31.144Z,16.27
2023-01-26T21:47:03.064Z,17.10
2023-01-26T21:49:32.004Z,18.07
2023-01-26T21:52:18.221Z,15.63
2023-01-26T21:54:47.127Z,31.37
2023-01-26T21:57:33.411Z,26.93
2023-01-26T22:00:04.184Z,25.43
2023-01-26T22:02:34.264Z,19.50
2023-01-26T22:05:03.310Z,13.90
2023-01-26T22:07:33.781Z,20.47
2023-01-26T22:10:06.100Z,15.63
2023-01-26T22:12:34.971Z,21.23
2023-01-26T22:15:05.715Z,23.50
2023-01-26T22:17:35.930Z,17.77
2023-01-26T22:20:05.383Z,21.07
2023-01-26T22:22:34.466Z,17.37
2023-01-26T22:25:03.296Z,20.73
2023-01-26T22:27:32.052Z,18.17
2023-01-26T22:30:03.047Z,12.13
2023-01-26T22:32:32.325Z,22.97
2023-01-26T22:35:05.572Z,20.20
2023-01-26T22:37:35.634Z,16.57
2023-01-26T22:40:04.520Z,17.77
2023-01-26T22:42:33.338Z,28.03
2023-01-26T22:45:02.118Z,10.53
2023-01-26T22:47:30.917Z,24.33
2023-01-26T22:50:00.009Z,21.93
2023-01-26T22:52:30.197Z,22.07
2023-01-26T22:54:59.045Z,26.07
2023-01-26T22:57:27.891Z,21.33
2023-01-26T22:59:56.701Z,12.73
2023-01-26T23:02:25.580Z,36.23
2023-01-26T23:04:54.409Z,19.87
2023-01-26T23:07:24.594Z,35.60
2023-01-26T23:09:54.906Z,23.90
2023-01-26T23:12:23.805Z,24.57
2023-01-26T23:14:54.267Z,27.23
2023-01-26T23:17:23.078Z,24.00
2023-01-26T23:19:53.876Z,31.93
2023-01-26T23:22:23.469Z,24.73
2023-01-26T23:25:06.024Z,18.17
2023-01-26T23:27:36.526Z,14.17
2023-01-26T23:30:06.002Z,16.83
2023-01-26T23:32:34.693Z,19.57
2023-01-26T23:35:04.809Z,23.70
2023-01-26T23:37:35.400Z,18.47
2023-01-26T23:40:04.353Z,19.90
2023-01-26T23:42:41.498Z,17.30
2023-01-26T23:45:20.392Z,23.07
2023-01-26T23:47:49.356Z,17.23
2023-01-26T23:50:18.646Z,25.03
2023-01-26T23:52:47.445Z,22.77
2023-01-26T23:55:16.308Z,23.83
2023-01-26T23:57:45.123Z,15.57
